Terminal Aerodrome Forecast
Issued by NWS Cleveland, OH

Home | Current Version | Previous Version | Text Only | Print | Product List | Glossary Off
Versions: 1 2 3 4 5 6 7 8 9 10 11 12 13 14 15 16 17 18

000
FTUS41 KCLE 241700
TAFCAK
TAF
KCAK 241720Z 2418/2518 20011KT P6SM SCT150 BKN250
     FM250200 16008KT P6SM SCT120 BKN250
     FM250900 20011KT P6SM SCT120 BKN250
     FM251500 22015G25KT P6SM SCT050 BKN120=

USA.gov is the U.S. government's official web portal to all federal, state and local government web resources and services.